CheckWX is a tool to help pilots better visualize weather data.  It is not intended as a substitute for an official pre-flight weather briefing.

18:31:18 UTC

KMVH METAR
N Bar Ranch Airport
Grassrange, Montana, USA
Current

16 mins ago

KMVH 241815Z AUTO 34011G18KT 10SM CLR 13/02 A2997 RMK AO2
Observed
Apr-24 @ 18:15 UTC
Wind
  • 340° at 11 KTS
  • Gusting to 18 KTS
Visibility
10 SM
Flight Rules
VFR
Cloud Levels
  • Clear skies
Temperature
13°C / 55°F
Dewpoint
C / 36°F
Humidity
47%
Altimeter
29.97" Hg
Pressure
1014.92 hPa
Previous

36 mins ago

KMVH 241755Z AUTO 32011KT 10SM CLR 12/02 A2997 RMK AO2
Observed
Apr-24 @ 17:55 UTC
Wind
  • 320° at 11 KTS
Visibility
10 SM
Flight Rules
VFR
Cloud Levels
  • Clear skies
Temperature
12°C / 54°F
Dewpoint
C / 36°F
Humidity
51%
Altimeter
29.97" Hg
Pressure
1014.92 hPa
Previous

56 mins ago

KMVH 241735Z AUTO 33010KT 9SM CLR 12/02 A2997 RMK AO2
Observed
Apr-24 @ 17:35 UTC
Wind
  • 330° at 10 KTS
Visibility
9 SM
Flight Rules
VFR
Cloud Levels
  • Clear skies
Temperature
12°C / 54°F
Dewpoint
C / 36°F
Humidity
51%
Altimeter
29.97" Hg
Pressure
1014.92 hPa